首页
METAR-TAF:

METAR-TAF

机场 :

路易斯·穆尼奥斯·马林国际机场

圣胡安, 波多黎哥, 美国

纬度: 18-27N, 经度: 066-00W, 海拔: 3米

当前天气观测

该预报发布于40分钟前的11:56 UTC
静风
温度 27°C
湿度 84%
气压 1018 hPa
能見度: 16.1公里
少量云层高于3400英尺
散云层高于12000英尺

METAR: TJSJ 181156Z 00000KT 10SM FEW034 SCT120 27/24 A3006 RMK AO2 SLP179 70061 T02670239 10267 20250 53009

时间: 08:36 (12:36 UTC)

预报

该预报发布于1小时和13分钟前的11:23 UTC
预报有效从18日的 12点(UTC)到 19日的 12点(UTC)
风速5节,风向
能見度: 10公里
散云层高于2500英尺
多云层高于5000英尺
多云层高于9000英尺
附近有阵雨
从 18日的 1430点(UTC)
风速12节,风向
能見度: 10公里
少量云层高于3000英尺
散云层高于5000英尺
散云层高于25000英尺
从 18日的 1800点(UTC)
风速15节,风向东转东北
能見度: 10公里
散云层高于2500英尺
散云层高于4000英尺
附近有阵雨
从 18日的 2300点(UTC)
风速8节,风向
能見度: 10公里
少量云层高于2800英尺
散云层高于5000英尺

TAF: TJSJ 181123Z 1812/1912 09005KT P6SM VCSH SCT025 BKN050 BKN090 FM181430 08012KT P6SM FEW030 SCT050 SCT250 FM181800 07015KT P6SM VCSH SCT025 SCT040 FM182300 10008KT P6SM FEW028 SCT050

超过4000个机场的气象观测和天气预报(METAR&TAF报告)。

可查询的气象台以黄色和红色小点在地图上表示。

将鼠标移到小点上方,可查看气象台名称。

然后点击查看天气观测和预报。

如需切换地图:点击带黑十字的绿色按钮放大地图;点击带横线的绿色按钮缩小地图;或者点击绿色箭头查看邻近地区的地图。


METAR-TAF: